Aviation Digital Data Service (ADDS)

Output produced by METARs form (1453 UTC 22 April 2021)
found at http://www.aviationweather.gov/metar/data/
 
VTSB 221400Z 00000KT 9999 FEW020 26/24 Q1010
VTSB 221300Z 00000KT 9999 FEW020 27/25 Q1009
VTSB 221200Z 00000KT 9999 FEW020 29/25 Q1008
VTSB 221100Z VRB02KT 9999 FEW020 30/24 Q1008
VTSB 221000Z 31004KT 270V340 9999 FEW020 32/25 Q1006
VTSB 220900Z VRB01KT 9999 FEW018CB 31/26 Q1007
VTSB 220800Z 00000KT 9999 VCSH FEW018CB 30/25 Q1007
VTSB 220700Z 05009KT 010V070 9999 VCSH FEW018CB 29/23 Q1008 RETS
VTSB 220600Z 25008KT 9999 VCSH FEW018CB 33/26 Q1009
VTSB 220500Z 23004KT 150V280 9999 -RA FEW018CB SCT020 34/25 Q1010
VTSB 220400Z VRB03KT 9999 VCSH FEW018TCU SCT020 33/25 Q1011
VTSB 220300Z 22003KT 160V280 9999 FEW020 32/26 Q1012
VTSB 220200Z 20003KT 150V250 9999 FEW020 30/27 Q1012
VTSB 220100Z 21003KT 140V250 9999 FEW005 28/27 Q1011
VTSB 220000Z 00000KT 9999 FEW005 25/25 Q1010
VTSB 212300Z VRB02KT 1000 R22/P2000 BR SCT005 24/24 Q1009
VTSB 212200Z 00000KT 7000 FEW020 24/24 Q1009
VTSB 211500Z 24001KT 9999 FEW020 26/25 Q1011
TAF VTSB 221100Z 2212/2312 23005KT 9000 FEW020 
     TEMPO 2303/2312 VRB10G20KT 3000 TSRA FEW016CB SCT018 BKN100